createdAt,value
2017-12-29T00:00:20.391Z,9.20
2017-12-29T00:08:37.390Z,14.50
2017-12-29T00:11:29.974Z,13.03
2017-12-29T00:14:19.061Z,15.70
2017-12-29T00:17:09.760Z,13.20
2017-12-29T00:19:37.735Z,14.70
2017-12-29T00:25:20.346Z,13.03
2017-12-29T00:28:13.791Z,14.73
2017-12-29T00:33:23.374Z,16.40
2017-12-29T00:39:09.071Z,12.60
2017-12-29T00:41:41.554Z,19.17
2017-12-29T00:44:18.557Z,11.37
2017-12-29T00:47:08.740Z,13.30
2017-12-29T00:49:38.690Z,15.40
2017-12-29T00:52:27.277Z,12.70
2017-12-29T01:00:41.025Z,13.03
2017-12-29T01:03:10.022Z,13.63
2017-12-29T01:05:38.983Z,13.13
2017-12-29T01:08:24.377Z,16.40
2017-12-29T01:11:05.660Z,15.70
2017-12-29T01:16:34.122Z,14.17
2017-12-29T01:19:20.462Z,10.50
2017-12-29T01:27:38.318Z,13.57
2017-12-29T01:38:29.840Z,9.33
2017-12-29T01:41:22.712Z,8.20
2017-12-29T01:47:04.325Z,11.10
2017-12-29T01:49:32.850Z,13.33
2017-12-29T01:52:24.225Z,8.80
2017-12-29T01:58:10.301Z,11.40
2017-12-29T02:03:36.213Z,19.40
2017-12-29T02:12:07.968Z,11.93
2017-12-29T02:14:37.721Z,8.17
2017-12-29T02:17:22.848Z,5.93
2017-12-29T02:23:08.251Z,9.07
2017-12-29T02:25:37.667Z,7.13
2017-12-29T02:31:19.806Z,12.07
2017-12-29T02:39:34.611Z,7.87
2017-12-29T02:42:17.079Z,11.53
2017-12-29T02:47:40.849Z,9.23
2017-12-29T03:01:39.643Z,7.53
2017-12-29T03:07:06.259Z,11.67
2017-12-29T03:12:32.486Z,8.23
2017-12-29T03:15:17.759Z,6.97
2017-12-29T03:20:38.593Z,9.50
2017-12-29T03:23:22.946Z,9.50
2017-12-29T03:32:01.490Z,11.17
2017-12-29T03:34:39.387Z,12.73
2017-12-29T03:37:15.951Z,9.90
2017-12-29T03:42:36.980Z,11.30
2017-12-29T03:45:26.238Z,6.47
2017-12-29T03:53:56.426Z,9.20
2017-12-29T03:56:46.388Z,9.37
2017-12-29T04:05:04.261Z,12.23
2017-12-29T04:07:53.014Z,10.13
2017-12-29T04:22:09.152Z,8.43
2017-12-29T04:24:53.755Z,6.77
2017-12-29T04:33:09.638Z,7.77
2017-12-29T04:35:55.802Z,7.90
2017-12-29T04:38:47.360Z,10.33
2017-12-29T05:10:15.482Z,10.47
2017-12-29T05:18:23.784Z,12.17
2017-12-29T05:41:17.784Z,9.57
2017-12-29T05:44:07.186Z,9.37
2017-12-29T05:49:49.556Z,15.83
2017-12-29T06:00:58.286Z,14.43
2017-12-29T06:09:20.847Z,12.33
2017-12-29T06:23:25.607Z,12.20
2017-12-29T06:40:11.519Z,11.10
2017-12-29T06:45:38.215Z,8.43
2017-12-29T06:48:07.120Z,7.50
2017-12-29T06:59:22.575Z,11.30
2017-12-29T07:10:36.106Z,10.70
2017-12-29T07:27:32.853Z,5.83
2017-12-29T07:41:37.426Z,13.73
2017-12-29T07:44:23.598Z,8.77
2017-12-29T07:58:22.574Z,6.43
2017-12-29T08:26:34.714Z,5.67
2017-12-29T08:49:21.632Z,7.30
2017-12-29T09:49:24.593Z,8.20
2017-12-29T09:55:11.102Z,4.67
2017-12-29T10:26:30.646Z,9.17
2017-12-29T10:28:58.915Z,6.17
2017-12-29T10:31:27.416Z,8.70
2017-12-29T10:33:54.882Z,6.10
2017-12-29T10:36:22.406Z,7.97
2017-12-29T10:38:50.670Z,5.93
2017-12-29T10:41:18.147Z,6.47
2017-12-29T10:43:46.410Z,7.13
2017-12-29T10:46:14.776Z,8.43
2017-12-29T10:48:42.233Z,8.53
2017-12-29T10:51:09.779Z,6.57
2017-12-29T10:53:37.507Z,6.17
2017-12-29T10:56:05.025Z,6.13
2017-12-29T10:58:33.250Z,5.40
2017-12-29T11:01:00.764Z,6.23
2017-12-29T11:03:28.195Z,6.20
2017-12-29T11:05:55.678Z,10.40
2017-12-29T11:08:23.915Z,7.27
2017-12-29T11:10:51.544Z,7.70
2017-12-29T11:13:19.008Z,9.23
2017-12-29T11:15:46.502Z,7.53
2017-12-29T11:18:14.752Z,4.77
2017-12-29T11:20:42.259Z,8.73
2017-12-29T11:23:09.718Z,9.33
2017-12-29T11:25:37.203Z,8.30
2017-12-29T11:28:04.689Z,8.47
2017-12-29T11:30:32.200Z,6.73
2017-12-29T11:32:59.716Z,5.13
2017-12-29T11:35:27.419Z,5.63
2017-12-29T11:37:54.907Z,11.37
2017-12-29T11:40:22.392Z,7.63
2017-12-29T11:42:49.899Z,7.73
2017-12-29T11:45:17.354Z,8.10
2017-12-29T11:47:44.836Z,6.43
2017-12-29T11:50:12.360Z,6.03
2017-12-29T11:52:39.932Z,8.33
2017-12-29T11:55:07.414Z,9.57
2017-12-29T11:57:34.875Z,8.53
2017-12-29T12:00:02.349Z,9.63
2017-12-29T12:02:30.577Z,7.87
2017-12-29T12:04:58.045Z,6.37
2017-12-29T12:07:25.539Z,7.73
2017-12-29T12:09:53.030Z,13.80
2017-12-29T12:12:20.503Z,9.13
2017-12-29T12:14:47.989Z,6.37
2017-12-29T12:17:15.629Z,6.97
2017-12-29T12:19:43.104Z,5.83
2017-12-29T12:22:10.582Z,4.90
2017-12-29T12:24:38.802Z,9.17
2017-12-29T12:27:06.315Z,7.77
2017-12-29T12:29:33.775Z,5.90
2017-12-29T12:32:01.270Z,4.83
2017-12-29T12:34:29.069Z,7.27
2017-12-29T12:36:57.326Z,13.87
2017-12-29T12:39:24.805Z,8.33
2017-12-29T12:41:53.054Z,7.67
2017-12-29T12:44:20.543Z,6.43
2017-12-29T12:46:48.774Z,4.93
2017-12-29T12:49:16.256Z,10.30
2017-12-29T12:51:43.755Z,6.43
2017-12-29T12:54:11.248Z,6.80
2017-12-29T12:56:38.711Z,7.20
2017-12-29T12:59:06.211Z,6.30
2017-12-29T13:01:33.662Z,6.50
2017-12-29T13:04:01.162Z,7.83
2017-12-29T13:06:28.638Z,7.10
2017-12-29T13:08:56.171Z,4.97
2017-12-29T13:11:23.980Z,13.90
2017-12-29T13:13:51.665Z,4.97
2017-12-29T13:16:19.158Z,6.53
2017-12-29T13:18:46.628Z,3.00
2017-12-29T13:21:14.352Z,6.90
2017-12-29T13:23:42.109Z,12.37
2017-12-29T13:26:09.700Z,7.53
2017-12-29T13:28:37.167Z,6.70
2017-12-29T13:31:04.882Z,6.70
2017-12-29T13:33:32.391Z,10.53
2017-12-29T13:35:59.874Z,12.67
2017-12-29T13:38:28.135Z,3.97
2017-12-29T13:40:56.389Z,6.80
2017-12-29T13:43:23.877Z,10.80
2017-12-29T13:45:52.263Z,9.43
2017-12-29T13:48:19.715Z,8.23
2017-12-29T13:50:47.182Z,6.77
2017-12-29T13:53:14.657Z,4.07
2017-12-29T13:55:42.128Z,5.23
2017-12-29T13:58:09.628Z,10.30
2017-12-29T14:00:37.860Z,8.37
2017-12-29T14:03:05.391Z,12.13
2017-12-29T14:05:32.946Z,10.90
2017-12-29T14:08:00.554Z,7.10
2017-12-29T14:10:28.038Z,13.97
2017-12-29T14:12:55.622Z,11.50
2017-12-29T14:15:23.395Z,18.17
2017-12-29T14:17:51.358Z,11.80
2017-12-29T14:20:18.863Z,12.67
2017-12-29T14:22:46.634Z,13.70
2017-12-29T14:25:14.146Z,13.03
2017-12-29T14:27:41.714Z,13.97
2017-12-29T14:30:09.179Z,14.50
2017-12-29T14:32:36.760Z,15.53
2017-12-29T14:35:05.129Z,7.33
2017-12-29T14:37:32.590Z,12.57
2017-12-29T14:40:00.846Z,14.23
2017-12-29T14:42:28.312Z,8.07
2017-12-29T14:44:55.836Z,14.87
2017-12-29T14:47:23.373Z,12.97
2017-12-29T14:49:50.928Z,7.00
2017-12-29T14:52:18.436Z,14.53
2017-12-29T14:54:46.003Z,15.23
2017-12-29T14:57:13.487Z,22.43
2017-12-29T14:59:41.712Z,11.73
2017-12-29T15:02:09.206Z,19.90
2017-12-29T15:04:37.461Z,20.47
2017-12-29T15:07:04.992Z,17.50
2017-12-29T15:09:32.469Z,17.60
2017-12-29T15:12:00.187Z,23.43
2017-12-29T15:14:27.660Z,17.40
2017-12-29T15:16:55.306Z,21.50
2017-12-29T15:19:22.765Z,22.43
2017-12-29T15:21:50.305Z,19.07
2017-12-29T15:24:17.772Z,21.10
2017-12-29T15:26:45.275Z,22.20
2017-12-29T15:29:12.742Z,21.70
2017-12-29T15:31:40.334Z,19.30
2017-12-29T15:34:07.988Z,22.83
2017-12-29T15:36:36.187Z,17.40
2017-12-29T15:39:03.719Z,18.03
2017-12-29T15:41:31.325Z,22.03
2017-12-29T15:43:58.812Z,14.47
2017-12-29T15:46:27.074Z,13.53
2017-12-29T15:48:54.749Z,20.87
2017-12-29T15:51:24.149Z,27.07
2017-12-29T15:53:52.428Z,18.77
2017-12-29T15:56:22.689Z,21.03
2017-12-29T15:58:51.021Z,20.20
2017-12-29T16:01:34.141Z,21.33
2017-12-29T16:04:02.406Z,16.73
2017-12-29T16:06:29.925Z,18.47
2017-12-29T16:08:57.443Z,12.17
2017-12-29T16:11:25.403Z,16.07
2017-12-29T16:13:53.684Z,14.97
2017-12-29T16:16:22.131Z,13.73
2017-12-29T16:18:49.715Z,12.57
2017-12-29T16:21:17.951Z,16.63
2017-12-29T16:23:45.448Z,17.50
2017-12-29T16:26:13.154Z,16.60
2017-12-29T16:28:40.716Z,14.77
2017-12-29T16:31:08.285Z,11.40
2017-12-29T16:33:36.062Z,13.03
2017-12-29T16:36:03.530Z,10.73
2017-12-29T16:38:31.817Z,13.57
2017-12-29T16:41:00.084Z,12.80
2017-12-29T16:43:29.317Z,13.03
2017-12-29T16:45:57.272Z,14.33
2017-12-29T16:48:24.836Z,12.83
2017-12-29T16:50:52.439Z,8.73
2017-12-29T16:53:19.973Z,13.87
2017-12-29T16:55:47.477Z,10.20
2017-12-29T16:58:14.960Z,16.87
2017-12-29T17:00:42.564Z,12.13
2017-12-29T17:03:11.127Z,14.33
2017-12-29T17:05:38.811Z,12.53
2017-12-29T17:08:06.317Z,12.50
2017-12-29T17:10:33.798Z,9.60
2017-12-29T17:13:01.270Z,10.23
2017-12-29T17:15:28.794Z,12.90
2017-12-29T17:17:56.282Z,15.80
2017-12-29T17:20:24.057Z,9.40
2017-12-29T17:22:52.830Z,10.77
2017-12-29T17:25:20.667Z,10.10
2017-12-29T17:27:48.348Z,8.50
2017-12-29T17:30:15.818Z,12.37
2017-12-29T17:32:43.334Z,13.77
2017-12-29T17:35:10.925Z,11.20
2017-12-29T17:37:38.608Z,11.00
2017-12-29T17:40:06.309Z,7.73
2017-12-29T17:42:33.808Z,7.57
2017-12-29T17:45:01.344Z,10.77
2017-12-29T17:47:28.853Z,7.10
2017-12-29T17:49:57.362Z,6.20
2017-12-29T17:52:24.935Z,5.37
2017-12-29T17:54:52.459Z,3.87
2017-12-29T17:57:20.916Z,5.73
2017-12-29T17:59:48.426Z,5.83
2017-12-29T18:02:16.230Z,4.87
2017-12-29T18:04:44.002Z,8.17
2017-12-29T18:07:12.293Z,11.97
2017-12-29T18:09:39.803Z,11.87
2017-12-29T18:12:07.274Z,8.60
2017-12-29T18:14:34.857Z,11.47
2017-12-29T18:17:03.088Z,13.07
2017-12-29T18:19:30.601Z,6.53
2017-12-29T18:21:58.234Z,8.07
2017-12-29T18:24:25.728Z,7.97
2017-12-29T18:26:54.691Z,7.73
2017-12-29T18:29:23.377Z,6.27
2017-12-29T18:31:51.644Z,5.97
2017-12-29T18:34:22.251Z,5.93
2017-12-29T18:36:49.957Z,4.50
2017-12-29T18:39:19.558Z,7.60
2017-12-29T18:41:48.169Z,5.53
2017-12-29T18:44:18.080Z,6.80
2017-12-29T18:46:45.581Z,6.53
2017-12-29T18:49:15.285Z,6.33
2017-12-29T18:51:43.572Z,7.10
2017-12-29T18:54:12.381Z,5.90
2017-12-29T18:56:44.826Z,10.53
2017-12-29T18:59:13.914Z,11.17
2017-12-29T19:01:42.585Z,12.40
2017-12-29T19:04:11.632Z,7.20
2017-12-29T19:06:43.424Z,6.50
2017-12-29T19:09:11.074Z,6.60
2017-12-29T19:11:38.629Z,8.53
2017-12-29T19:14:06.290Z,7.80
2017-12-29T19:16:33.833Z,9.47
2017-12-29T19:19:01.672Z,7.70
2017-12-29T19:21:30.237Z,8.37
2017-12-29T19:23:58.630Z,9.20
2017-12-29T19:26:29.796Z,10.47
2017-12-29T19:28:57.290Z,10.93
2017-12-29T19:31:24.975Z,10.37
2017-12-29T19:33:52.510Z,7.97
2017-12-29T19:36:20.100Z,14.17
2017-12-29T19:38:48.464Z,8.67
2017-12-29T19:41:18.793Z,13.53
2017-12-29T19:43:47.038Z,10.93
2017-12-29T19:46:16.689Z,9.53
2017-12-29T19:48:44.966Z,10.53
2017-12-29T19:51:16.002Z,10.43
2017-12-29T19:53:47.119Z,11.37
2017-12-29T19:56:14.812Z,12.50
2017-12-29T19:58:46.149Z,10.27
2017-12-29T20:01:14.642Z,11.93
2017-12-29T20:03:42.159Z,11.37
2017-12-29T20:06:14.578Z,10.27
2017-12-29T20:08:43.134Z,9.57
2017-12-29T20:11:16.040Z,11.73
2017-12-29T20:13:49.179Z,10.53
2017-12-29T20:16:16.739Z,10.77
2017-12-29T20:18:52.421Z,9.17
2017-12-29T20:21:20.778Z,20.77
2017-12-29T20:23:50.582Z,11.13
2017-12-29T20:26:19.796Z,15.17
2017-12-29T20:28:50.194Z,11.43
2017-12-29T20:31:24.732Z,10.00
2017-12-29T20:33:52.992Z,11.47
2017-12-29T20:36:26.400Z,12.50
2017-12-29T20:38:58.090Z,12.17
2017-12-29T20:41:29.721Z,13.90
2017-12-29T20:43:57.442Z,13.27
2017-12-29T20:46:25.120Z,13.93
2017-12-29T20:48:55.967Z,11.87
2017-12-29T20:51:25.820Z,11.13
2017-12-29T20:53:55.221Z,13.20
2017-12-29T20:56:25.898Z,12.93
2017-12-29T20:58:53.384Z,18.87
2017-12-29T21:01:25.681Z,15.27
2017-12-29T21:03:53.136Z,14.73
2017-12-29T21:06:23.115Z,14.33
2017-12-29T21:09:02.791Z,14.80
2017-12-29T21:11:32.404Z,12.97
2017-12-29T21:14:03.410Z,18.50
2017-12-29T21:16:31.171Z,15.83
2017-12-29T21:18:59.897Z,13.43
2017-12-29T21:21:27.380Z,16.53
2017-12-29T21:24:01.089Z,15.97
2017-12-29T21:26:29.478Z,16.53
2017-12-29T21:28:59.038Z,16.77
2017-12-29T21:31:37.971Z,15.30
2017-12-29T21:34:13.171Z,15.47
2017-12-29T21:36:42.738Z,13.67
2017-12-29T21:39:11.069Z,16.67
2017-12-29T21:41:40.239Z,17.57
2017-12-29T21:44:14.270Z,18.03
2017-12-29T21:46:42.872Z,18.10
2017-12-29T21:49:11.335Z,20.10
2017-12-29T21:51:44.307Z,17.43
2017-12-29T21:54:12.046Z,20.67
2017-12-29T21:56:40.621Z,20.13
2017-12-29T22:04:38.778Z,15.43
2017-12-29T22:07:25.985Z,18.90
2017-12-29T22:10:12.421Z,20.47
2017-12-29T22:12:41.634Z,23.77
2017-12-29T22:18:10.998Z,17.80
2017-12-29T22:20:38.828Z,22.90
2017-12-29T22:28:51.841Z,23.43
2017-12-29T22:31:27.059Z,22.93
2017-12-29T22:33:55.888Z,27.80
2017-12-29T22:39:12.487Z,33.60
2017-12-29T22:41:45.016Z,30.73
2017-12-29T22:44:22.194Z,23.80
2017-12-29T22:46:52.192Z,21.43
2017-12-29T22:49:29.865Z,24.43
2017-12-29T22:51:57.583Z,23.87
2017-12-29T22:54:34.331Z,26.40
2017-12-29T22:57:21.858Z,20.87
2017-12-29T22:59:56.463Z,15.43
2017-12-29T23:05:26.142Z,14.27
2017-12-29T23:07:53.879Z,14.03
2017-12-29T23:10:23.178Z,15.33
2017-12-29T23:12:50.783Z,16.13
2017-12-29T23:15:20.454Z,17.87
2017-12-29T23:20:49.290Z,12.30
2017-12-29T23:23:28.048Z,19.07
2017-12-29T23:26:00.101Z,14.60
2017-12-29T23:28:28.602Z,18.83
2017-12-29T23:30:56.502Z,20.93
2017-12-29T23:33:24.172Z,14.90
2017-12-29T23:35:58.005Z,15.30
2017-12-29T23:38:26.266Z,15.40
2017-12-29T23:40:59.913Z,19.77
2017-12-29T23:43:28.496Z,14.20
2017-12-29T23:46:09.850Z,15.70
2017-12-29T23:48:57.734Z,16.90
2017-12-29T23:51:25.234Z,13.37
2017-12-29T23:53:59.512Z,10.30
2017-12-29T23:56:29.535Z,12.07
2017-12-29T23:58:59.112Z,16.97
